Time;durP1;ratioP1;P1;durP2;ratioP2;P2;SDS_P1;SDS_P2;PMS_P1;PMS_P2;Temp;Humidity;BMP_temperature;BMP_pressure;BME280_temperature;BME280_humidity;BME280_pressure;Samples;Min_cycle;Max_cycle;Signal;HPM_P1;HPM_P2
2023/04/15 00:01:57;;;;;;;5.07;3.20;;;4.30;99.90;;;;;;5024708;28;20243;-36
2023/04/15 00:04:26;;;;;;;5.85;3.28;;;4.30;99.90;;;;;;5024297;28;20338;-36
2023/04/15 00:06:54;;;;;;;5.78;4.20;;;4.30;99.90;;;;;;5024253;28;20045;-37
2023/04/15 00:09:21;;;;;;;5.35;3.28;;;4.30;99.90;;;;;;5026269;28;20112;-36
2023/04/15 00:11:50;;;;;;;4.93;2.92;;;4.30;99.90;;;;;;5024474;28;20072;-37
2023/04/15 00:14:17;;;;;;;3.20;2.88;;;4.30;99.90;;;;;;5025614;28;20048;-37
2023/04/15 00:16:45;;;;;;;8.43;2.60;;;4.30;99.90;;;;;;5025701;28;20422;-36
2023/04/15 00:19:12;;;;;;;3.67;2.85;;;4.30;99.90;;;;;;5023199;28;20056;-36
2023/04/15 00:21:40;;;;;;;3.63;3.42;;;4.30;99.90;;;;;;5024862;28;20064;-37
2023/04/15 00:24:07;;;;;;;6.93;2.85;;;4.30;99.90;;;;;;5024619;28;20366;-37
2023/04/15 00:26:35;;;;;;;3.58;3.22;;;4.30;99.90;;;;;;5025470;28;20045;-36
2023/04/15 00:29:03;;;;;;;3.85;3.05;;;4.30;99.90;;;;;;5024654;28;20924;-36
2023/04/15 00:31:31;;;;;;;6.00;3.35;;;4.30;99.90;;;;;;5006644;28;20556;-37
2023/04/15 00:33:58;;;;;;;3.85;3.30;;;4.30;99.90;;;;;;5023568;28;20065;-36
2023/04/15 00:36:26;;;;;;;9.43;3.78;;;4.30;99.90;;;;;;5022099;28;20509;-36
2023/04/15 00:38:54;;;;;;;5.70;3.88;;;4.30;99.90;;;;;;5024337;28;20052;-36
2023/04/15 00:41:21;;;;;;;7.25;4.07;;;4.20;99.90;;;;;;5023832;28;20049;-37
2023/04/15 00:43:49;;;;;;;9.48;3.20;;;4.30;99.90;;;;;;5024369;28;20294;-36
2023/04/15 00:46:20;;;;;;;3.63;3.30;;;4.30;99.90;;;;;;5024859;28;20046;-36
2023/04/15 00:48:48;;;;;;;2.78;2.58;;;4.20;99.90;;;;;;5023774;28;20045;-35
2023/04/15 00:51:15;;;;;;;5.25;3.55;;;4.20;99.90;;;;;;5023473;28;20056;-36
2023/04/15 00:53:43;;;;;;;3.63;3.33;;;4.20;99.90;;;;;;5025383;28;20057;-35
2023/04/15 00:56:13;;;;;;;5.28;3.47;;;4.20;99.90;;;;;;5006589;28;20528;-37
2023/04/15 00:58:41;;;;;;;3.60;3.28;;;4.20;99.90;;;;;;5023564;28;20425;-36
2023/04/15 01:01:10;;;;;;;3.10;2.90;;;4.20;99.90;;;;;;5023906;28;20045;-37
2023/04/15 01:03:37;;;;;;;3.78;3.10;;;4.20;99.90;;;;;;5024192;28;20538;-37
2023/04/15 01:06:06;;;;;;;5.43;3.78;;;4.20;99.90;;;;;;5023519;28;20057;-37
2023/04/15 01:08:34;;;;;;;6.05;4.53;;;4.20;99.90;;;;;;5024862;28;20430;-38
2023/04/15 01:11:02;;;;;;;3.72;3.35;;;4.20;99.90;;;;;;5024260;28;20053;-37
2023/04/15 01:13:32;;;;;;;4.05;3.65;;;4.20;99.90;;;;;;5024192;28;20053;-36
2023/04/15 01:16:01;;;;;;;8.73;4.53;;;4.20;99.90;;;;;;5023826;28;20053;-37
2023/04/15 01:18:30;;;;;;;10.38;4.63;;;4.20;99.90;;;;;;5022714;28;20053;-37
2023/04/15 01:21:02;;;;;;;7.93;3.85;;;4.30;99.90;;;;;;5005876;28;20413;-36
2023/04/15 01:23:31;;;;;;;;;;;4.30;99.90;;;;;;5024504;28;20049;-36
2023/04/15 01:25:59;;;;;;;6.15;4.53;;;4.20;99.90;;;;;;5021992;28;19925;-36
2023/04/15 01:28:27;;;;;;;8.80;3.80;;;4.20;99.90;;;;;;5024139;28;20053;-36
2023/04/15 01:31:06;;;;;;;5.85;4.40;;;4.30;99.90;;;;;;5023055;28;20437;-39
2023/04/15 01:33:37;;;;;;;5.75;4.10;;;4.30;99.90;;;;;;5023722;28;20069;-37
2023/04/15 01:36:24;;;;;;;14.57;9.65;;;4.20;99.90;;;;;;5023151;28;20053;-37
2023/04/15 01:38:54;;;;;;;5.07;4.40;;;4.20;99.90;;;;;;5028128;28;20363;-37
2023/04/15 01:41:27;;;;;;;7.47;4.18;;;4.30;99.90;;;;;;5024468;28;20052;-36
2023/04/15 01:43:56;;;;;;;3.53;3.22;;;4.20;99.90;;;;;;5022797;28;20049;-37
2023/04/15 01:46:25;;;;;;;6.93;4.40;;;4.20;99.90;;;;;;5005540;28;20068;-37
2023/04/15 01:48:54;;;;;;;4.88;4.47;;;4.20;99.90;;;;;;5023714;28;20053;-36
2023/04/15 01:51:23;;;;;;;7.40;5.13;;;4.20;99.90;;;;;;5023360;28;20049;-36
2023/04/15 01:53:52;;;;;;;4.78;3.83;;;4.20;99.90;;;;;;5024023;28;20054;-36
2023/04/15 01:56:23;;;;;;;9.75;5.93;;;4.20;99.90;;;;;;5023496;28;20046;-36
2023/04/15 01:58:52;;;;;;;7.77;4.47;;;4.20;99.90;;;;;;5022564;28;20441;-36
2023/04/15 02:01:21;;;;;;;5.97;5.25;;;4.20;99.90;;;;;;5022968;28;20061;-37
2023/04/15 02:03:50;;;;;;;8.68;5.55;;;4.20;99.90;;;;;;5022148;28;20084;-37
2023/04/15 02:06:19;;;;;;;6.28;4.13;;;4.20;99.90;;;;;;5024586;28;20045;-36
2023/04/15 02:08:49;;;;;;;5.45;4.50;;;4.20;99.90;;;;;;5025007;28;20054;-36
2023/04/15 02:11:18;;;;;;;8.45;4.95;;;4.20;99.90;;;;;;5023291;28;20211;-36
2023/04/15 02:13:47;;;;;;;6.63;4.18;;;4.20;99.90;;;;;;5022271;28;20049;-39
2023/04/15 02:16:17;;;;;;;10.18;5.22;;;4.20;99.90;;;;;;5022540;28;20492;-36
2023/04/15 02:18:46;;;;;;;6.18;5.57;;;4.20;99.90;;;;;;5024793;28;20492;-36
2023/04/15 02:21:15;;;;;;;6.93;5.25;;;4.20;99.90;;;;;;5027248;28;20049;-37
2023/04/15 02:23:45;;;;;;;6.88;3.47;;;4.20;99.90;;;;;;5010394;28;20049;-37
2023/04/15 02:26:14;;;;;;;8.38;6.55;;;4.20;99.90;;;;;;5027389;28;20054;-36
2023/04/15 02:28:43;;;;;;;7.82;3.95;;;4.20;99.90;;;;;;5027037;28;20421;-36
2023/04/15 02:31:16;;;;;;;9.20;5.18;;;4.20;99.90;;;;;;5027141;28;20060;-37
2023/04/15 02:33:45;;;;;;;5.60;4.75;;;4.20;99.90;;;;;;5011154;28;20136;-36
2023/04/15 02:36:14;;;;;;;7.55;4.25;;;4.20;99.90;;;;;;5025757;28;20060;-36
2023/04/15 02:38:43;;;;;;;4.88;4.43;;;4.20;99.90;;;;;;5008573;28;20050;-36
2023/04/15 02:41:12;;;;;;;5.13;4.45;;;4.20;99.90;;;;;;5040373;28;20057;-36
2023/04/15 02:43:41;;;;;;;5.53;4.05;;;4.20;99.90;;;;;;5025162;28;20426;-36
2023/04/15 02:46:13;;;;;;;4.65;4.05;;;4.10;99.90;;;;;;5014163;28;20061;-36
2023/04/15 02:48:42;;;;;;;4.00;3.72;;;4.10;99.90;;;;;;5008619;28;20060;-36
2023/04/15 02:51:21;;;;;;;4.95;3.85;;;4.10;99.90;;;;;;5018497;28;20057;-37
2023/04/15 02:53:50;;;;;;;4.85;4.25;;;4.10;99.90;;;;;;5005956;28;20056;-36
2023/04/15 02:56:24;;;;;;;8.48;4.47;;;4.10;99.90;;;;;;5005488;28;20061;-36
2023/04/15 02:58:55;;;;;;;5.20;4.68;;;4.10;99.90;;;;;;5012174;28;20033;-36
2023/04/15 03:01:25;;;;;;;8.90;4.43;;;4.10;99.90;;;;;;4992410;28;20054;-36
2023/04/15 03:03:54;;;;;;;9.32;4.90;;;4.10;99.90;;;;;;4985721;28;20049;-36
2023/04/15 03:06:23;;;;;;;10.25;6.15;;;4.10;99.90;;;;;;4994019;28;20046;-36
2023/04/15 03:08:52;;;;;;;5.22;4.72;;;4.10;99.90;;;;;;5005830;28;20079;-36
2023/04/15 03:11:22;;;;;;;7.40;5.35;;;4.10;99.90;;;;;;5013684;28;20049;-37
2023/04/15 03:13:51;;;;;;;4.43;3.95;;;4.00;99.90;;;;;;4983458;28;20065;-36
2023/04/15 03:16:29;;;;;;;5.85;4.50;;;4.10;99.90;;;;;;4935304;28;20059;-37
2023/04/15 03:18:59;;;;;;;6.20;4.93;;;4.10;99.90;;;;;;4951208;28;20047;-38
2023/04/15 03:21:29;;;;;;;5.68;5.15;;;4.10;99.90;;;;;;4942863;29;20058;-36
2023/04/15 03:23:58;;;;;;;6.30;4.72;;;4.10;99.90;;;;;;4941872;28;20199;-36
2023/04/15 03:26:29;;;;;;;5.95;4.95;;;4.10;99.90;;;;;;4959621;28;20058;-37
2023/04/15 03:29:02;;;;;;;7.47;5.40;;;4.10;99.90;;;;;;4953547;28;20058;-36
2023/04/15 03:31:31;;;;;;;10.10;8.02;;;4.00;99.90;;;;;;4961718;28;20077;-36
2023/04/15 03:34:00;;;;;;;6.05;4.40;;;4.10;99.90;;;;;;4946689;28;20099;-36
2023/04/15 03:36:33;;;;;;;8.35;5.72;;;4.10;99.90;;;;;;4945019;28;20128;-36
2023/04/15 03:39:03;;;;;;;8.80;5.25;;;4.00;99.90;;;;;;4945463;28;20563;-37
2023/04/15 03:41:32;;;;;;;9.32;4.72;;;4.10;99.90;;;;;;4947023;28;20086;-36
2023/04/15 03:44:01;;;;;;;6.97;5.18;;;4.10;99.90;;;;;;4959433;28;20055;-36
2023/04/15 03:46:30;;;;;;;9.00;5.47;;;4.10;99.90;;;;;;4955254;28;20118;-36
2023/04/15 03:48:59;;;;;;;6.68;4.63;;;4.10;99.90;;;;;;5010873;28;20057;-36
2023/04/15 03:51:28;;;;;;;5.72;3.90;;;4.10;99.90;;;;;;5019119;28;20052;-37
2023/04/15 03:53:57;;;;;;;6.43;4.38;;;4.10;99.90;;;;;;5024439;28;20517;-37
2023/04/15 03:56:27;;;;;;;7.25;5.35;;;4.10;99.90;;;;;;5024250;28;20060;-36
2023/04/15 03:58:57;;;;;;;5.28;4.40;;;4.10;99.90;;;;;;5023613;28;20045;-36
2023/04/15 04:01:26;;;;;;;7.05;5.75;;;4.10;99.90;;;;;;5023845;28;20054;-36
2023/04/15 04:03:55;;;;;;;7.38;6.10;;;4.10;99.90;;;;;;5009718;28;20046;-36
2023/04/15 04:06:25;;;;;;;5.03;4.55;;;4.10;99.90;;;;;;5025160;28;20041;-36
2023/04/15 04:08:53;;;;;;;7.03;6.07;;;4.10;99.90;;;;;;5022417;28;20049;-36
2023/04/15 04:11:22;;;;;;;10.35;4.75;;;4.10;99.90;;;;;;5015845;28;20061;-36
2023/04/15 04:13:51;;;;;;;5.53;4.88;;;4.10;99.90;;;;;;5020912;28;20061;-36
2023/04/15 04:16:20;;;;;;;8.32;5.40;;;4.20;99.90;;;;;;5025223;28;20465;-36
2023/04/15 04:18:49;;;;;;;6.65;4.60;;;4.20;99.90;;;;;;5023225;28;20049;-36
2023/04/15 04:21:18;;;;;;;6.07;5.45;;;4.20;99.90;;;;;;5021248;28;20057;-36
2023/04/15 04:23:47;;;;;;;10.55;5.40;;;4.20;99.90;;;;;;5012246;28;20542;-36
2023/04/15 04:26:16;;;;;;;5.57;4.55;;;4.30;99.90;;;;;;5024008;28;20048;-36
2023/04/15 04:28:45;;;;;;;6.22;4.22;;;4.20;99.90;;;;;;5018261;28;20132;-36
2023/04/15 04:31:14;;;;;;;6.00;5.45;;;4.20;99.90;;;;;;5022496;28;20046;-36
2023/04/15 04:33:43;;;;;;;6.05;5.35;;;4.20;99.90;;;;;;5010126;28;20065;-36
2023/04/15 04:36:11;;;;;;;12.45;5.53;;;4.30;99.90;;;;;;5017791;28;20454;-36
2023/04/15 04:38:40;;;;;;;4.70;4.30;;;4.20;99.90;;;;;;5014051;28;20058;-36
2023/04/15 04:41:09;;;;;;;7.22;4.65;;;4.30;99.90;;;;;;5019922;28;20057;-36
2023/04/15 04:43:38;;;;;;;6.57;5.90;;;4.30;99.90;;;;;;5024821;28;20041;-37
2023/04/15 04:46:06;;;;;;;8.13;5.90;;;4.30;99.90;;;;;;5019884;28;20049;-36
2023/04/15 04:48:35;;;;;;;5.28;4.88;;;4.30;99.90;;;;;;5020295;28;20457;-36
2023/04/15 04:51:04;;;;;;;9.65;4.38;;;4.30;99.90;;;;;;5007420;28;20453;-36
2023/04/15 04:53:33;;;;;;;6.88;4.13;;;4.30;99.90;;;;;;5025630;28;20057;-36
2023/04/15 04:56:02;;;;;;;5.78;4.75;;;4.30;99.90;;;;;;5024540;28;20053;-36
2023/04/15 04:58:31;;;;;;;6.70;4.15;;;4.30;99.90;;;;;;5023252;28;20049;-40
2023/04/15 05:01:00;;;;;;;6.22;5.45;;;4.30;99.90;;;;;;5024009;28;20529;-37
2023/04/15 05:03:29;;;;;;;8.18;4.85;;;4.30;99.90;;;;;;5024231;28;20517;-36
2023/04/15 05:05:58;;;;;;;4.80;3.78;;;4.30;99.90;;;;;;5023782;28;20419;-36
2023/04/15 05:08:27;;;;;;;10.75;4.07;;;4.30;99.90;;;;;;5023756;28;20051;-37
2023/04/15 05:10:55;;;;;;;8.25;4.38;;;4.30;99.90;;;;;;5024054;28;20425;-36
2023/04/15 05:13:25;;;;;;;6.60;4.93;;;4.30;99.90;;;;;;5025158;28;20049;-37
2023/04/15 05:15:53;;;;;;;7.03;4.80;;;4.30;99.90;;;;;;5023683;28;20053;-36
2023/04/15 05:18:22;;;;;;;4.70;4.18;;;4.40;99.90;;;;;;5013623;28;20045;-36
2023/04/15 05:20:51;;;;;;;6.72;4.85;;;4.40;99.90;;;;;;5023129;28;20057;-36
2023/04/15 05:23:20;;;;;;;5.40;3.60;;;4.30;99.90;;;;;;5024032;28;20502;-37
2023/04/15 05:25:49;;;;;;;3.92;3.47;;;4.40;99.90;;;;;;5024058;28;20057;-36
2023/04/15 05:28:18;;;;;;;6.35;4.30;;;4.40;99.90;;;;;;5024426;28;20053;-36
2023/04/15 05:30:47;;;;;;;4.55;4.10;;;4.40;99.90;;;;;;5023233;28;20120;-37
2023/04/15 05:33:16;;;;;;;6.00;3.58;;;4.40;99.90;;;;;;5024039;28;20084;-37
2023/04/15 05:35:45;;;;;;;5.60;3.95;;;4.40;99.90;;;;;;5022889;28;20056;-36
2023/04/15 05:38:14;;;;;;;18.25;4.90;;;4.40;99.90;;;;;;5022952;28;20060;-36
2023/04/15 05:40:43;;;;;;;10.52;4.53;;;4.40;99.90;;;;;;5024299;28;20513;-36
2023/04/15 05:43:12;;;;;;;4.30;3.88;;;4.40;99.90;;;;;;5023919;28;20092;-36
2023/04/15 05:45:40;;;;;;;6.55;5.63;;;4.40;99.90;;;;;;5023400;28;20068;-37
2023/04/15 05:48:09;;;;;;;6.07;4.53;;;4.40;99.90;;;;;;5024057;28;20045;-36
2023/04/15 05:50:41;;;;;;;4.20;3.42;;;4.40;99.90;;;;;;5021566;28;20049;-36
2023/04/15 05:53:10;;;;;;;5.28;4.28;;;4.40;99.90;;;;;;5024956;28;20049;-38
2023/04/15 05:55:39;;;;;;;3.55;3.25;;;4.40;99.90;;;;;;5026068;28;20040;-36
2023/04/15 05:58:08;;;;;;;5.60;4.10;;;4.40;99.90;;;;;;5028253;28;20449;-36
2023/04/15 06:00:36;;;;;;;4.32;3.40;;;4.40;99.90;;;;;;5027082;28;20403;-36
2023/04/15 06:03:06;;;;;;;6.63;4.13;;;4.40;99.90;;;;;;5027746;28;20056;-36
2023/04/15 06:05:35;;;;;;;8.32;4.15;;;4.50;99.90;;;;;;5008731;28;20060;-36
2023/04/15 06:08:04;;;;;;;4.15;3.75;;;4.50;99.90;;;;;;5027090;28;20532;-36
2023/04/15 06:10:35;;;;;;;4.07;3.78;;;4.50;99.90;;;;;;5024579;28;20056;-36
2023/04/15 06:13:04;;;;;;;3.88;3.47;;;4.50;99.90;;;;;;5028567;28;20053;-36
2023/04/15 06:15:34;;;;;;;5.70;3.53;;;4.60;99.90;;;;;;5014055;28;20418;-36
2023/04/15 06:18:04;;;;;;;8.85;3.60;;;4.50;99.90;;;;;;5027930;28;20064;-36
2023/04/15 06:20:32;;;;;;;4.03;3.72;;;4.60;99.90;;;;;;5026739;28;20059;-36
2023/04/15 06:23:01;;;;;;;7.03;3.42;;;4.60;99.90;;;;;;5027328;28;20060;-36
2023/04/15 06:25:30;;;;;;;3.22;2.88;;;4.60;99.90;;;;;;5028000;28;20076;-36
2023/04/15 06:27:59;;;;;;;3.67;3.38;;;4.60;99.90;;;;;;5027006;28;20437;-36
2023/04/15 06:30:28;;;;;;;5.82;3.28;;;4.60;99.90;;;;;;5027802;28;20060;-36
2023/04/15 06:32:56;;;;;;;4.40;3.40;;;4.70;99.90;;;;;;5027361;28;20060;-37
2023/04/15 06:35:26;;;;;;;3.55;2.97;;;4.70;99.90;;;;;;5013859;28;20047;-37
2023/04/15 06:37:55;;;;;;;5.63;2.90;;;4.70;99.90;;;;;;5027416;28;20099;-40
2023/04/15 06:40:24;;;;;;;5.05;3.60;;;4.70;99.90;;;;;;5026726;28;20044;-36
2023/04/15 06:42:54;;;;;;;3.58;3.28;;;4.70;99.90;;;;;;5026447;28;20060;-36
2023/04/15 06:45:23;;;;;;;5.30;3.78;;;4.80;99.90;;;;;;5026738;28;20313;-36
2023/04/15 06:47:52;;;;;;;10.65;4.57;;;4.80;99.90;;;;;;5026771;28;20053;-38
2023/04/15 06:50:21;;;;;;;4.97;4.55;;;4.90;99.90;;;;;;5025274;28;20060;-36
2023/04/15 06:52:50;;;;;;;4.93;4.40;;;4.90;99.90;;;;;;5027237;28;20357;-37
2023/04/15 06:55:19;;;;;;;20.02;4.47;;;5.00;99.90;;;;;;5027120;28;20059;-36
2023/04/15 06:57:47;;;;;;;3.15;2.95;;;5.00;99.90;;;;;;5026484;28;20058;-36
2023/04/15 07:00:17;;;;;;;7.15;3.05;;;5.00;99.90;;;;;;5026408;28;20045;-37
2023/04/15 07:02:46;;;;;;;7.75;3.17;;;5.00;99.90;;;;;;5019070;28;20056;-36
2023/04/15 07:05:15;;;;;;;3.72;2.72;;;5.00;99.90;;;;;;5025520;28;20056;-36
2023/04/15 07:07:44;;;;;;;7.50;2.97;;;5.00;99.90;;;;;;5026368;28;20049;-37
2023/04/15 07:10:14;;;;;;;5.30;2.88;;;5.10;99.90;;;;;;5026918;28;20064;-36
2023/04/15 07:12:43;;;;;;;2.33;2.20;;;5.00;99.90;;;;;;5022107;28;20425;-36
2023/04/15 07:15:12;;;;;;;6.68;3.45;;;5.10;99.90;;;;;;5025914;28;20084;-37
2023/04/15 07:17:42;;;;;;;5.70;3.00;;;5.00;99.90;;;;;;5026983;28;20057;-37
2023/04/15 07:20:11;;;;;;;7.68;2.70;;;5.10;99.90;;;;;;5025155;28;20052;-36
2023/04/15 07:22:40;;;;;;;5.25;3.00;;;5.20;99.90;;;;;;5027960;28;20041;-36
2023/04/15 07:25:09;;;;;;;4.28;3.90;;;5.20;99.90;;;;;;5026943;28;20053;-36
2023/04/15 07:27:38;;;;;;;3.67;2.78;;;5.20;99.90;;;;;;5021709;28;20068;-36
2023/04/15 07:30:08;;;;;;;4.60;3.65;;;5.10;99.90;;;;;;5025532;28;20081;-36
2023/04/15 07:32:37;;;;;;;4.80;4.10;;;5.20;99.90;;;;;;5026317;28;20048;-37
2023/04/15 07:35:06;;;;;;;4.72;3.10;;;5.30;99.90;;;;;;5025258;28;20045;-36
2023/04/15 07:37:35;;;;;;;5.43;2.97;;;5.30;99.90;;;;;;5026150;28;20061;-37
2023/04/15 07:40:06;;;;;;;4.50;2.78;;;5.40;99.90;;;;;;5026165;28;20049;-37
2023/04/15 07:42:35;;;;;;;4.20;3.33;;;5.40;99.90;;;;;;5026093;28;20393;-36
2023/04/15 07:45:06;;;;;;;4.32;2.63;;;5.60;99.90;;;;;;5026391;28;20057;-36
2023/04/15 07:47:35;;;;;;;8.57;4.63;;;5.60;99.90;;;;;;5025207;28;20125;-36
2023/04/15 07:50:04;;;;;;;9.80;3.90;;;5.70;99.90;;;;;;5025190;28;20060;-36
2023/04/15 07:52:37;;;;;;;3.45;2.67;;;5.60;99.90;;;;;;5026548;28;20056;-36
2023/04/15 07:55:08;;;;;;;6.68;3.42;;;5.70;99.90;;;;;;5025167;28;20060;-37
2023/04/15 07:57:37;;;;;;;9.27;3.03;;;5.90;99.90;;;;;;5026245;28;20049;-36
2023/04/15 08:00:07;;;;;;;3.08;2.53;;;6.00;99.90;;;;;;5024725;28;20060;-36
2023/04/15 08:02:42;;;;;;;4.32;3.00;;;6.10;99.90;;;;;;5024270;28;20049;-48
2023/04/15 08:05:12;;;;;;;3.67;3.13;;;6.00;99.90;;;;;;5024890;28;20050;-48
2023/04/15 08:07:41;;;;;;;7.03;2.90;;;6.10;99.90;;;;;;5025212;28;20045;-37
2023/04/15 08:10:10;;;;;;;3.80;3.15;;;6.10;99.90;;;;;;5025050;28;20046;-36
2023/04/15 08:12:40;;;;;;;3.55;2.83;;;6.10;99.90;;;;;;5027664;28;20053;-35
2023/04/15 08:15:09;;;;;;;7.68;2.80;;;6.10;99.90;;;;;;5024429;28;20048;-36
2023/04/15 08:17:38;;;;;;;3.65;3.03;;;6.00;99.90;;;;;;5024806;28;20065;-36
2023/04/15 08:20:12;;;;;;;5.32;2.72;;;5.90;99.90;;;;;;5024685;28;20052;-36
2023/04/15 08:22:41;;;;;;;2.83;2.63;;;5.90;99.90;;;;;;5025284;28;20045;-38
2023/04/15 08:25:10;;;;;;;5.82;3.05;;;5.90;99.90;;;;;;5025727;28;20053;-36
2023/04/15 08:27:39;;;;;;;4.65;3.47;;;6.10;99.90;;;;;;5024495;28;20053;-36
2023/04/15 08:30:08;;;;;;;4.97;3.75;;;6.20;99.90;;;;;;5025089;28;20056;-37
2023/04/15 08:32:37;;;;;;;3.72;2.60;;;6.20;99.90;;;;;;5015956;28;20474;-36
2023/04/15 08:35:07;;;;;;;10.38;3.22;;;6.30;99.90;;;;;;5024057;28;20049;-36
2023/04/15 08:37:36;;;;;;;4.85;2.75;;;6.40;99.90;;;;;;5025252;28;20065;-36
2023/04/15 08:40:07;;;;;;;3.38;3.08;;;6.60;99.90;;;;;;5025374;28;20426;-37
2023/04/15 08:42:43;;;;;;;5.13;3.63;;;6.70;99.90;;;;;;5024076;28;20050;-37
2023/04/15 08:45:13;;;;;;;3.20;2.90;;;6.90;99.90;;;;;;5025035;28;20053;-36
2023/04/15 08:47:43;;;;;;;4.13;3.15;;;7.00;99.90;;;;;;5024709;28;20041;-36
2023/04/15 08:50:14;;;;;;;5.30;3.80;;;7.00;99.90;;;;;;5025607;28;20421;-48
2023/04/15 08:52:43;;;;;;;4.45;2.60;;;7.10;99.90;;;;;;5021603;28;20058;-48
2023/04/15 08:55:13;;;;;;;4.50;3.22;;;7.10;99.90;;;;;;5024408;28;20049;-47
2023/04/15 08:57:42;;;;;;;4.50;3.30;;;7.10;99.90;;;;;;5027438;28;20049;-47
2023/04/15 09:00:12;;;;;;;6.53;3.30;;;7.00;99.90;;;;;;5023802;28;20052;-47
2023/04/15 09:02:42;;;;;;;4.38;3.30;;;6.90;99.90;;;;;;5023347;28;20053;-48
2023/04/15 09:05:11;;;;;;;6.50;4.75;;;6.90;99.90;;;;;;5022897;28;20415;-48
2023/04/15 09:07:40;;;;;;;4.10;2.83;;;6.90;99.90;;;;;;5032163;28;20049;-47
2023/04/15 09:10:09;;;;;;;6.10;2.95;;;6.80;99.90;;;;;;5024428;28;20054;-47
2023/04/15 09:12:38;;;;;;;5.97;3.80;;;6.70;99.90;;;;;;5023500;28;20080;-46
2023/04/15 09:15:11;;;;;;;4.10;3.13;;;6.70;99.90;;;;;;5023774;28;20060;-46
2023/04/15 09:17:44;;;;;;;7.00;2.97;;;6.80;99.90;;;;;;5024255;28;20057;-47
2023/04/15 09:20:15;;;;;;;5.63;3.25;;;6.80;99.90;;;;;;5023229;28;20045;-47
2023/04/15 09:22:46;;;;;;;3.20;2.90;;;6.80;99.90;;;;;;5024226;28;20057;-46
2023/04/15 09:25:21;;;;;;;3.22;2.92;;;6.90;99.90;;;;;;5024012;28;20391;-47
2023/04/15 09:27:58;;;;;;;3.22;2.92;;;6.90;99.90;;;;;;5016533;28;20451;-46
2023/04/15 09:30:28;;;;;;;4.00;2.97;;;6.80;99.90;;;;;;5011124;28;20429;-46
2023/04/15 09:32:59;;;;;;;3.30;3.00;;;6.70;99.90;;;;;;5024557;28;20061;-46
2023/04/15 09:35:28;;;;;;;3.63;3.08;;;6.70;99.90;;;;;;5022528;28;20053;-46
2023/04/15 09:38:08;;;;;;;8.95;3.53;;;6.60;99.90;;;;;;5023537;28;20442;-47
2023/04/15 09:40:41;;;;;;;5.53;3.67;;;6.60;99.90;;;;;;5023970;28;20767;-46
2023/04/15 09:43:13;;;;;;;3.65;3.35;;;6.60;99.90;;;;;;5024397;28;20045;-46
2023/04/15 09:45:54;;;;;;;8.38;3.55;;;6.70;99.90;;;;;;5024079;28;20049;-47
2023/04/15 09:48:26;;;;;;;3.95;3.63;;;6.70;99.90;;;;;;5022883;28;20042;-46
2023/04/15 09:51:00;;;;;;;4.88;3.38;;;6.60;99.90;;;;;;5022357;28;20056;-46
2023/04/15 09:53:33;;;;;;;4.53;4.07;;;6.60;99.90;;;;;;5023687;28;20060;-46
2023/04/15 09:56:02;;;;;;;4.25;3.85;;;6.70;99.90;;;;;;5023809;28;20038;-47
2023/04/15 09:58:34;;;;;;;3.92;3.63;;;6.70;99.90;;;;;;5023344;28;20042;-46
2023/04/15 10:01:05;;;;;;;4.55;4.18;;;6.80;99.90;;;;;;5023230;28;20057;-47
2023/04/15 10:03:37;;;;;;;6.18;4.10;;;6.80;99.90;;;;;;5023486;28;20045;-47
2023/04/15 10:06:06;;;;;;;4.70;3.65;;;6.80;99.90;;;;;;5022940;28;20302;-47
2023/04/15 10:08:35;;;;;;;5.93;3.65;;;6.90;99.90;;;;;;5023872;28;20060;-46
2023/04/15 10:11:05;;;;;;;7.13;5.20;;;7.00;99.90;;;;;;5022840;28;20050;-47
2023/04/15 10:13:36;;;;;;;5.00;3.85;;;6.90;99.90;;;;;;5023681;28;20053;-47
2023/04/15 10:16:15;;;;;;;6.05;5.45;;;6.90;99.90;;;;;;5023064;28;20050;-36
2023/04/15 10:18:46;;;;;;;5.72;3.67;;;7.00;99.90;;;;;;5020416;28;20042;-35
2023/04/15 10:21:17;;;;;;;4.28;3.90;;;7.00;99.90;;;;;;5020990;28;20053;-35
2023/04/15 10:23:46;;;;;;;;;;;7.00;99.90;;;;;;5022389;28;20049;-35
2023/04/15 10:26:19;;;;;;;7.15;4.63;;;7.00;99.90;;;;;;5023330;28;19936;-35
2023/04/15 10:28:48;;;;;;;7.97;5.95;;;7.10;99.90;;;;;;5024123;28;20100;-36
2023/04/15 10:31:18;;;;;;;9.68;5.43;;;7.20;99.90;;;;;;5023304;28;20046;-36
2023/04/15 10:33:48;;;;;;;12.03;4.50;;;7.10;99.90;;;;;;5023450;28;20061;-37
2023/04/15 10:36:18;;;;;;;7.10;4.43;;;7.10;99.90;;;;;;5022916;28;20053;-36
2023/04/15 10:38:47;;;;;;;9.65;5.68;;;7.20;99.90;;;;;;5023213;28;20406;-36
2023/04/15 10:41:17;;;;;;;7.72;4.43;;;7.30;99.90;;;;;;5013388;28;20057;-37
2023/04/15 10:44:15;;;;;;;5.55;5.00;;;7.20;99.90;;;;;;5026889;28;20046;-38
2023/04/15 10:46:44;;;;;;;6.32;4.05;;;7.20;99.90;;;;;;5022452;28;20076;-37
2023/04/15 10:49:15;;;;;;;7.25;4.78;;;7.30;99.90;;;;;;5026107;28;20069;-36
2023/04/15 10:51:50;;;;;;;5.30;4.30;;;7.30;99.90;;;;;;5026307;28;20062;-37
2023/04/15 10:54:25;;;;;;;9.23;4.65;;;7.30;99.90;;;;;;5026073;28;20049;-37
2023/04/15 10:57:02;;;;;;;10.35;5.50;;;7.30;99.90;;;;;;5014268;28;20409;-37
2023/04/15 10:59:31;;;;;;;6.90;5.10;;;7.20;99.90;;;;;;5026510;28;20072;-37
2023/04/15 11:02:02;;;;;;;6.25;4.88;;;7.30;99.90;;;;;;5025976;28;20377;-36
2023/04/15 11:04:57;;;;;;;6.13;5.40;;;7.30;99.90;;;;;;5026119;28;20057;-37
2023/04/15 11:07:43;;;;;;;6.88;5.13;;;7.40;99.90;;;;;;5025207;28;20045;-37
2023/04/15 11:10:24;;;;;;;6.22;3.92;;;7.40;99.90;;;;;;5025980;28;20053;-37
2023/04/15 11:12:57;;;;;;;6.55;5.47;;;7.40;99.90;;;;;;5016397;28;20088;-36
2023/04/15 11:15:36;;;;;;;12.30;4.78;;;7.50;99.90;;;;;;5025498;28;20049;-36
2023/04/15 11:18:11;;;;;;;7.47;6.10;;;7.40;99.90;;;;;;5026106;28;20057;-36
2023/04/15 11:20:43;;;;;;;5.85;5.30;;;7.40;99.90;;;;;;5026264;28;20058;-36
2023/04/15 11:23:14;;;;;;;17.15;7.25;;;7.40;99.90;;;;;;5026917;28;20049;-36
2023/04/15 11:25:45;;;;;;;7.22;4.57;;;7.40;99.90;;;;;;5026189;28;20057;-36
2023/04/15 11:28:13;;;;;;;7.03;4.80;;;7.40;99.90;;;;;;5018843;28;20045;-36
2023/04/15 11:30:43;;;;;;;9.25;5.63;;;7.40;99.90;;;;;;5025968;28;20136;-36
2023/04/15 11:33:12;;;;;;;7.93;5.43;;;7.40;99.90;;;;;;5027608;28;20053;-37
2023/04/15 11:35:41;;;;;;;7.15;3.85;;;7.40;99.90;;;;;;5025151;28;20049;-36
2023/04/15 11:38:12;;;;;;;8.45;5.18;;;7.50;99.90;;;;;;5025164;28;20056;-36
2023/04/15 11:40:43;;;;;;;10.45;4.35;;;7.60;99.90;;;;;;5025858;28;20049;-37
2023/04/15 11:43:19;;;;;;;5.68;5.13;;;7.60;99.90;;;;;;5025837;28;20049;-36
2023/04/15 11:45:52;;;;;;;6.35;4.60;;;7.70;99.90;;;;;;5024461;28;20076;-37
2023/04/15 11:48:23;;;;;;;7.18;4.15;;;7.70;99.90;;;;;;5024708;28;20084;-37
2023/04/15 11:50:58;;;;;;;4.35;3.92;;;7.80;99.90;;;;;;5023248;28;20045;-38
2023/04/15 11:53:47;;;;;;;5.07;4.15;;;7.80;99.90;;;;;;5026106;28;20045;-36
2023/04/15 11:56:23;;;;;;;4.45;3.80;;;7.70;99.90;;;;;;5016322;28;20510;-36
2023/04/15 11:58:52;;;;;;;5.35;4.55;;;7.80;99.90;;;;;;5026168;28;20041;-37
2023/04/15 12:01:20;;;;;;;5.35;4.85;;;7.80;99.90;;;;;;5025724;28;20532;-36
2023/04/15 12:03:48;;;;;;;4.72;4.32;;;7.80;99.90;;;;;;5024360;28;20076;-37
2023/04/15 12:06:19;;;;;;;7.78;6.30;;;7.80;99.90;;;;;;5024584;28;20044;-37
2023/04/15 12:09:11;;;;;;;5.55;5.05;;;7.90;99.90;;;;;;5025942;28;20053;-36
2023/04/15 12:11:41;;;;;;;5.05;4.55;;;7.90;99.90;;;;;;5013443;28;20056;-37
2023/04/15 12:14:12;;;;;;;5.63;4.43;;;7.90;99.90;;;;;;5025007;28;20053;-36
2023/04/15 12:16:52;;;;;;;6.80;4.47;;;7.80;99.90;;;;;;5021753;28;20296;-39
2023/04/15 12:19:34;;;;;;;5.80;4.30;;;7.80;99.90;;;;;;5023907;28;20049;-37
2023/04/15 12:22:03;;;;;;;;;;;7.80;99.90;;;;;;5024971;28;20053;-36
2023/04/15 12:24:32;;;;;;;6.07;3.95;;;7.80;99.90;;;;;;5025110;28;20321;-39
2023/04/15 12:27:04;;;;;;;8.20;4.82;;;7.70;99.90;;;;;;5023157;28;20072;-36
2023/04/15 12:29:34;;;;;;;6.85;3.78;;;7.70;99.90;;;;;;5024972;28;20052;-38
2023/04/15 12:32:09;;;;;;;5.20;4.35;;;7.70;99.90;;;;;;5023602;28;20052;-36
2023/04/15 12:34:39;;;;;;;4.60;4.20;;;7.70;99.90;;;;;;5022162;28;20048;-38
2023/04/15 12:37:08;;;;;;;9.82;4.22;;;7.60;99.90;;;;;;5024907;28;20223;-37
2023/04/15 12:39:38;;;;;;;5.28;4.55;;;7.50;99.90;;;;;;5025220;28;20053;-37
2023/04/15 12:42:07;;;;;;;9.32;5.18;;;7.50;99.90;;;;;;5024758;28;20051;-43
2023/04/15 12:44:35;;;;;;;5.25;4.22;;;7.40;99.90;;;;;;5023765;28;20064;-38
2023/04/15 12:47:03;;;;;;;8.85;5.55;;;7.40;99.90;;;;;;5024822;28;20053;-38
2023/04/15 12:49:32;;;;;;;6.65;4.82;;;7.30;99.90;;;;;;5027315;28;20072;-37
2023/04/15 12:52:01;;;;;;;4.82;4.30;;;7.30;99.90;;;;;;5028877;28;20041;-37
2023/04/15 12:54:30;;;;;;;4.70;4.20;;;7.20;99.90;;;;;;5016963;28;20054;-37
2023/04/15 12:56:58;;;;;;;7.13;4.82;;;7.20;99.90;;;;;;5033177;28;20053;-36
2023/04/15 12:59:26;;;;;;;3.97;3.60;;;7.20;99.90;;;;;;5017138;28;20046;-37
2023/04/15 13:01:53;;;;;;;5.75;5.00;;;7.20;99.90;;;;;;5017471;28;20080;-37
2023/04/15 13:04:21;;;;;;;6.90;4.47;;;7.20;99.90;;;;;;5021512;28;20048;-38
2023/04/15 13:06:49;;;;;;;5.07;3.80;;;7.20;99.90;;;;;;5022629;28;20049;-36
2023/04/15 13:09:17;;;;;;;7.78;4.68;;;7.20;99.90;;;;;;5018894;28;20379;-36
2023/04/15 13:11:45;;;;;;;6.97;4.72;;;7.10;99.90;;;;;;5023674;28;20038;-37
2023/04/15 13:14:12;;;;;;;5.22;4.72;;;7.10;99.90;;;;;;5015670;28;20624;-38